createdAt,value
2022-12-13T00:00:57.506Z,100301.47
2022-12-13T00:03:23.979Z,100300.81
2022-12-13T00:05:50.402Z,100289.75
2022-12-13T00:08:17.058Z,100294.16
2022-12-13T00:10:43.568Z,100293.47
2022-12-13T00:13:10.023Z,100298.03
2022-12-13T00:15:36.440Z,100300.66
2022-12-13T00:18:02.852Z,100301.63
2022-12-13T00:20:29.268Z,100294.72
2022-12-13T00:22:55.647Z,100293.91
2022-12-13T00:25:22.152Z,100288.63
2022-12-13T00:27:48.632Z,100286.13
2022-12-13T00:30:15.032Z,100286.13
2022-12-13T00:32:41.424Z,100289.75
2022-12-13T00:35:07.951Z,100295.94
2022-12-13T00:37:34.365Z,100296.91
2022-12-13T00:40:00.780Z,100281.44
2022-12-13T00:42:27.165Z,100300.78
2022-12-13T00:44:53.651Z,100293.84
2022-12-13T00:47:20.918Z,100291.38
2022-12-13T00:49:47.456Z,100288.88
2022-12-13T00:52:13.918Z,100279.47
2022-12-13T00:54:40.320Z,100283.91
2022-12-13T00:57:06.741Z,100280.59
2022-12-13T00:59:33.117Z,100280.03
2022-12-13T01:01:59.525Z,100284.44
2022-12-13T01:04:25.932Z,100281.97
2022-12-13T01:06:53.041Z,100277.81
2022-12-13T01:09:20.800Z,100280.59
2022-12-13T01:11:47.474Z,100278.09
2022-12-13T01:14:13.889Z,100280.00
2022-12-13T01:16:40.333Z,100273.09
2022-12-13T01:19:06.724Z,100276.72
2022-12-13T01:21:33.345Z,100269.78
2022-12-13T01:24:06.316Z,100268.13
2022-12-13T01:26:32.966Z,100258.44
2022-12-13T01:28:59.366Z,100254.28
2022-12-13T01:31:26.370Z,100253.34
2022-12-13T01:33:52.733Z,100251.00
2022-12-13T01:36:27.672Z,100260.63
2022-12-13T01:38:58.812Z,100262.44
2022-12-13T01:41:27.229Z,100260.09
2022-12-13T01:43:55.302Z,100259.41
2022-12-13T01:46:21.783Z,100264.91
2022-12-13T01:48:57.682Z,100264.09
2022-12-13T01:51:47.338Z,100265.19
2022-12-13T01:54:21.448Z,100270.56
2022-12-13T01:56:51.090Z,100260.19
2022-12-13T01:59:19.015Z,100256.75
2022-12-13T02:01:46.615Z,100261.16
2022-12-13T02:04:13.055Z,100270.97
2022-12-13T02:06:44.500Z,100274.41
2022-12-13T02:09:11.457Z,100274.56
2022-12-13T02:11:41.609Z,100277.19
2022-12-13T02:14:09.836Z,100268.63
2022-12-13T02:16:42.106Z,100271.25
2022-12-13T02:19:31.106Z,100270.25
2022-12-13T02:21:57.454Z,100271.25
2022-12-13T02:24:42.722Z,100270.41
2022-12-13T02:27:30.465Z,100268.63
2022-12-13T02:30:15.902Z,100256.47
2022-12-13T02:32:50.463Z,100263.47
2022-12-13T02:35:22.759Z,100258.38
2022-12-13T02:38:07.752Z,100263.63
2022-12-13T02:40:43.307Z,100263.63
2022-12-13T02:43:15.835Z,100256.75
2022-12-13T02:45:49.223Z,100252.44
2022-12-13T02:48:25.423Z,100256.03
2022-12-13T02:50:52.694Z,100255.31
2022-12-13T02:53:21.390Z,100249.25
2022-12-13T02:55:47.784Z,100250.34
2022-12-13T02:58:15.800Z,100244.28
2022-12-13T03:00:53.751Z,100250.50
2022-12-13T03:03:43.235Z,100252.41
2022-12-13T03:06:33.557Z,100256.00
2022-12-13T03:09:09.930Z,100256.13
2022-12-13T03:12:07.899Z,100249.25
2022-12-13T03:14:36.427Z,100249.47
2022-12-13T03:17:05.486Z,100255.56
2022-12-13T03:19:31.914Z,100248.66
2022-12-13T03:21:58.340Z,100258.34
2022-12-13T03:24:24.711Z,100260.97
2022-12-13T03:26:51.887Z,100258.34
2022-12-13T03:29:24.358Z,100255.81
2022-12-13T03:31:51.772Z,100246.31
2022-12-13T03:34:22.411Z,100242.84
2022-12-13T03:36:49.895Z,100230.72
2022-12-13T03:39:16.359Z,100236.91
2022-12-13T03:41:42.785Z,100229.06
2022-12-13T03:44:09.249Z,100238.69
2022-12-13T03:46:35.859Z,100232.63
2022-12-13T03:49:02.374Z,100232.63
2022-12-13T03:51:28.776Z,100229.06
2022-12-13T03:53:55.203Z,100230.97
2022-12-13T03:56:21.636Z,100224.75
2022-12-13T03:58:48.124Z,100223.09
2022-12-13T04:01:16.148Z,100216.91
2022-12-13T04:03:43.886Z,100223.81
2022-12-13T04:06:10.824Z,100227.38
2022-12-13T04:08:37.896Z,100226.56
2022-12-13T04:11:23.173Z,100224.75
2022-12-13T04:13:49.590Z,100224.06
2022-12-13T04:16:16.075Z,100217.97
2022-12-13T04:18:42.632Z,100219.06
2022-12-13T04:21:09.057Z,100215.78
2022-12-13T04:23:35.464Z,100219.34
2022-12-13T04:26:01.885Z,100222.13
2022-12-13T04:28:28.297Z,100222.22
2022-12-13T04:30:54.673Z,100222.22
2022-12-13T04:33:22.203Z,100221.53
2022-12-13T04:35:49.260Z,100218.09
2022-12-13T04:38:15.719Z,100224.16
2022-12-13T04:40:42.139Z,100219.88
2022-12-13T04:43:08.592Z,100214.63
2022-12-13T04:45:35.068Z,100218.22
2022-12-13T04:48:01.530Z,100223.44
2022-12-13T04:50:27.965Z,100219.31
2022-12-13T04:52:54.384Z,100222.78
2022-12-13T04:55:20.748Z,100220.16
2022-12-13T04:57:47.130Z,100227.88
2022-12-13T05:00:14.260Z,100223.44
2022-12-13T05:02:45.780Z,100216.28
2022-12-13T05:05:12.375Z,100219.59
2022-12-13T05:07:42.150Z,100218.41
2022-12-13T05:10:09.584Z,100204.16
2022-12-13T05:12:35.984Z,100207.13
2022-12-13T05:15:02.350Z,100213.91
2022-12-13T05:17:28.770Z,100210.13
2022-12-13T05:19:55.141Z,100213.53
2022-12-13T05:22:21.509Z,100206.56
2022-12-13T05:24:48.194Z,100205.06
2022-12-13T05:27:25.069Z,100207.81
2022-12-13T05:30:03.961Z,100203.00
2022-12-13T05:32:43.069Z,100196.75
2022-12-13T05:35:10.811Z,100196.31
2022-12-13T05:37:37.214Z,100200.78
2022-12-13T05:40:03.738Z,100197.66
2022-12-13T05:42:30.319Z,100200.13
2022-12-13T05:44:56.710Z,100194.66
2022-12-13T05:47:23.078Z,100196.81
2022-12-13T05:49:49.471Z,100200.16
2022-12-13T05:52:20.035Z,100203.75
2022-12-13T05:54:46.496Z,100206.03
2022-12-13T05:57:12.942Z,100213.41
2022-12-13T05:59:39.345Z,100214.34
2022-12-13T06:02:05.857Z,100207.22
2022-12-13T06:04:32.371Z,100213.19
2022-12-13T06:06:58.751Z,100205.94
2022-12-13T06:09:25.142Z,100207.78
2022-12-13T06:11:51.586Z,100200.75
2022-12-13T06:14:22.343Z,100196.97
2022-12-13T06:16:49.926Z,100193.84
2022-12-13T06:19:16.343Z,100186.38
2022-12-13T06:21:46.218Z,100195.97
2022-12-13T06:24:20.916Z,100191.16
2022-12-13T06:26:48.030Z,100190.78
2022-12-13T06:29:24.377Z,100190.75
2022-12-13T06:32:03.540Z,100192.66
2022-12-13T06:34:34.322Z,100199.84
2022-12-13T06:37:01.177Z,100198.41
2022-12-13T06:39:32.419Z,100198.31
2022-12-13T06:41:58.981Z,100200.16
2022-12-13T06:44:25.404Z,100207.00
2022-12-13T06:46:51.812Z,100203.25
2022-12-13T06:49:37.366Z,100214.47
2022-12-13T06:52:03.871Z,100217.78
2022-12-13T06:54:30.235Z,100210.25
2022-12-13T06:56:56.628Z,100213.28
2022-12-13T06:59:23.164Z,100218.72
2022-12-13T07:01:50.632Z,100215.47
2022-12-13T07:04:28.884Z,100219.13
2022-12-13T07:07:01.935Z,100216.72
2022-12-13T07:09:30.328Z,100220.22
2022-12-13T07:11:56.800Z,100233.25
2022-12-13T07:14:23.219Z,100232.88
2022-12-13T07:16:49.609Z,100238.69
2022-12-13T07:19:23.419Z,100233.75
2022-12-13T07:21:50.893Z,100238.59
2022-12-13T07:24:17.292Z,100225.72
2022-12-13T07:26:43.654Z,100234.75
2022-12-13T07:29:10.059Z,100233.22
2022-12-13T07:31:37.575Z,100227.56
2022-12-13T07:34:04.436Z,100221.59
2022-12-13T07:36:30.800Z,100232.41
2022-12-13T07:38:57.585Z,100236.00
2022-12-13T07:41:24.814Z,100240.47
2022-12-13T07:43:55.518Z,100234.34
2022-12-13T07:46:31.794Z,100243.91
2022-12-13T07:49:01.482Z,100239.75
2022-12-13T07:51:28.322Z,100245.56
2022-12-13T07:53:54.673Z,100243.75
2022-12-13T07:56:21.068Z,100237.38
2022-12-13T07:58:47.523Z,100239.06
2022-12-13T08:01:13.966Z,100246.50
2022-12-13T08:03:40.461Z,100238.34
2022-12-13T08:06:09.140Z,100248.41
2022-12-13T08:08:35.779Z,100246.19
2022-12-13T08:11:03.737Z,100249.22
2022-12-13T08:13:30.148Z,100246.03
2022-12-13T08:16:04.051Z,100241.84
2022-12-13T08:18:30.812Z,100244.56
2022-12-13T08:21:01.127Z,100249.94
2022-12-13T08:23:28.062Z,100253.50
2022-12-13T08:25:54.614Z,100245.69
2022-12-13T08:28:21.059Z,100244.00
2022-12-13T08:30:47.678Z,100245.91
2022-12-13T08:33:14.046Z,100251.91
2022-12-13T08:35:40.458Z,100247.75
2022-12-13T08:38:07.758Z,100247.97
2022-12-13T08:40:35.005Z,100249.34
2022-12-13T08:43:02.032Z,100254.81
2022-12-13T08:45:28.508Z,100242.84
2022-12-13T08:47:57.466Z,100237.81
2022-12-13T08:50:23.944Z,100249.28
2022-12-13T08:52:51.282Z,100240.59
2022-12-13T08:55:21.081Z,100239.56
2022-12-13T08:57:50.210Z,100242.91
2022-12-13T09:00:17.834Z,100237.72
2022-12-13T09:02:44.673Z,100240.56
2022-12-13T09:05:12.090Z,100238.28
2022-12-13T09:07:42.058Z,100241.28
2022-12-13T09:10:25.404Z,100239.19
2022-12-13T09:13:01.786Z,100244.13
2022-12-13T09:15:33.649Z,100248.28
2022-12-13T09:18:05.179Z,100258.22
2022-12-13T09:20:32.400Z,100249.81
2022-12-13T09:23:07.821Z,100253.53
2022-12-13T09:25:40.849Z,100245.81
2022-12-13T09:28:08.309Z,100259.84
2022-12-13T09:30:35.671Z,100253.00
2022-12-13T09:33:18.150Z,100259.97
2022-12-13T09:35:48.796Z,100252.09
2022-12-13T09:38:15.812Z,100255.59
2022-12-13T09:40:44.116Z,100245.88
2022-12-13T09:43:22.918Z,100255.66
2022-12-13T09:45:50.566Z,100253.84
2022-12-13T09:48:22.625Z,100248.47
2022-12-13T09:50:58.478Z,100253.44
2022-12-13T09:53:36.871Z,100251.66
2022-12-13T09:56:10.375Z,100243.91
2022-12-13T09:58:37.531Z,100251.03
2022-12-13T10:01:05.343Z,100241.59
2022-12-13T10:03:31.804Z,100243.91
2022-12-13T10:05:59.096Z,100238.31
2022-12-13T10:08:45.811Z,100244.09
2022-12-13T10:11:13.799Z,100241.13
2022-12-13T10:13:42.104Z,100242.63
2022-12-13T10:16:23.289Z,100237.81
2022-12-13T10:18:50.612Z,100237.50
2022-12-13T10:21:22.221Z,100231.88
2022-12-13T10:26:39.579Z,100221.63
2022-12-13T10:29:08.331Z,100220.97
2022-12-13T10:31:45.738Z,100215.66
2022-12-13T10:34:20.212Z,100218.47
2022-12-13T10:36:46.708Z,100209.03
2022-12-13T10:39:35.692Z,100214.31
2022-12-13T10:42:03.541Z,100209.16
2022-12-13T10:44:29.961Z,100213.78
2022-12-13T10:47:02.474Z,100212.28
2022-12-13T10:49:39.101Z,100211.97
2022-12-13T10:52:06.202Z,100208.63
2022-12-13T10:54:38.347Z,100211.25
2022-12-13T10:57:05.727Z,100205.31
2022-12-13T10:59:39.092Z,100201.31
2022-12-13T11:02:24.645Z,100199.97
2022-12-13T11:04:51.914Z,100190.69
2022-12-13T11:07:25.617Z,100200.59
2022-12-13T11:09:52.694Z,100195.25
2022-12-13T11:12:24.505Z,100192.94
2022-12-13T11:14:58.286Z,100189.88
2022-12-13T11:17:26.540Z,100187.19
2022-12-13T11:19:54.730Z,100175.19
2022-12-13T11:22:22.371Z,100177.78
2022-12-13T11:24:55.710Z,100173.09
2022-12-13T11:27:42.381Z,100174.31
2022-12-13T11:30:12.880Z,100173.09
2022-12-13T11:32:59.234Z,100176.50
2022-12-13T11:35:28.857Z,100157.88
2022-12-13T11:38:12.899Z,100145.69
2022-12-13T11:40:44.893Z,100141.34
2022-12-13T11:43:21.222Z,100141.44
2022-12-13T11:45:54.264Z,100146.84
2022-12-13T11:48:24.989Z,100142.47
2022-12-13T11:50:53.670Z,100144.22
2022-12-13T11:53:23.650Z,100143.31
2022-12-13T11:56:05.930Z,100143.41
2022-12-13T12:01:32.434Z,100145.50
2022-12-13T12:04:19.626Z,100134.75
2022-12-13T12:06:50.895Z,100132.66
2022-12-13T12:09:19.138Z,100132.38
2022-12-13T12:11:45.592Z,100132.06
2022-12-13T12:14:30.594Z,100128.09
2022-12-13T12:17:00.276Z,100117.16
2022-12-13T12:19:29.610Z,100117.53
2022-12-13T12:22:18.902Z,100114.94
2022-12-13T12:25:04.214Z,100108.88
2022-12-13T12:27:30.622Z,100108.94
2022-12-13T12:30:09.825Z,100106.72
2022-12-13T12:32:41.890Z,100114.13
2022-12-13T12:35:26.890Z,100106.59
2022-12-13T12:38:11.539Z,100101.53
2022-12-13T12:43:45.238Z,100105.56
2022-12-13T12:46:11.675Z,100099.28
2022-12-13T12:48:56.941Z,100103.59
2022-12-13T12:51:47.427Z,100111.06
2022-12-13T12:54:19.939Z,100102.56
2022-12-13T12:56:46.299Z,100100.34
2022-12-13T12:59:19.871Z,100098.16
2022-12-13T13:01:49.332Z,100101.50
2022-12-13T13:04:22.128Z,100105.84
2022-12-13T13:07:01.544Z,100104.25
2022-12-13T13:09:28.959Z,100096.44
2022-12-13T13:11:57.251Z,100096.88
2022-12-13T13:14:24.402Z,100081.53
2022-12-13T13:16:50.863Z,100095.47
2022-12-13T13:19:25.513Z,100086.88
2022-12-13T13:21:54.007Z,100077.81
2022-12-13T13:24:23.511Z,100080.31
2022-12-13T13:26:51.255Z,100071.47
2022-12-13T13:29:27.156Z,100073.34
2022-12-13T13:32:02.272Z,100084.81
2022-12-13T13:34:38.136Z,100074.16
2022-12-13T13:37:05.604Z,100084.81
2022-12-13T13:39:32.012Z,100088.31
2022-12-13T13:42:13.503Z,100095.47
2022-12-13T13:44:46.116Z,100091.78
2022-12-13T13:47:16.809Z,100090.56
2022-12-13T13:49:54.759Z,100101.25
2022-12-13T13:52:26.276Z,100095.09
2022-12-13T13:55:16.460Z,100100.03
2022-12-13T13:58:11.080Z,100092.63
2022-12-13T14:00:56.977Z,100088.13
2022-12-13T14:03:42.691Z,100092.25
2022-12-13T14:06:28.064Z,100086.91
2022-12-13T14:09:20.958Z,100093.06
2022-12-13T14:12:06.114Z,100092.25
2022-12-13T14:14:51.117Z,100082.41
2022-12-13T14:17:36.869Z,100082.41
2022-12-13T14:20:22.075Z,100084.84
2022-12-13T14:22:53.325Z,100082.41
2022-12-13T14:25:40.307Z,100083.63
2022-12-13T14:28:30.719Z,100079.91
2022-12-13T14:30:57.880Z,100084.56
2022-12-13T14:33:25.508Z,100082.50
2022-12-13T14:35:59.837Z,100082.84
2022-12-13T14:38:28.242Z,100086.25
2022-12-13T14:40:56.562Z,100093.16
2022-12-13T14:43:24.670Z,100100.03
2022-12-13T14:45:57.442Z,100106.47
2022-12-13T14:48:28.492Z,100106.56
2022-12-13T14:50:56.030Z,100114.81
2022-12-13T14:53:28.616Z,100108.13
2022-12-13T14:56:05.873Z,100103.03
2022-12-13T14:58:32.332Z,100110.38
2022-12-13T15:00:58.951Z,100101.44
2022-12-13T15:03:27.457Z,100106.63
2022-12-13T15:05:58.919Z,100110.97
2022-12-13T15:08:25.670Z,100103.81
2022-12-13T15:10:56.934Z,100112.44
2022-12-13T15:13:29.136Z,100112.91
2022-12-13T15:16:01.180Z,100114.72
2022-12-13T15:18:28.359Z,100112.16
2022-12-13T15:20:55.759Z,100111.59
2022-12-13T15:23:31.430Z,100107.38
2022-12-13T15:25:57.973Z,100101.28
2022-12-13T15:28:28.532Z,100100.56
2022-12-13T15:30:56.591Z,100096.16
2022-12-13T15:33:30.446Z,100100.34
2022-12-13T15:36:10.891Z,100094.09
2022-12-13T15:38:39.004Z,100102.97
2022-12-13T15:41:05.780Z,100100.19
2022-12-13T15:43:52.481Z,100100.25
2022-12-13T15:46:26.620Z,100094.81
2022-12-13T15:48:54.732Z,100101.66
2022-12-13T15:51:29.410Z,100099.88
2022-12-13T15:54:18.377Z,100095.13
2022-12-13T15:57:15.791Z,100092.34
2022-12-13T15:59:43.541Z,100084.28
2022-12-13T16:02:30.249Z,100077.88
2022-12-13T16:05:05.584Z,100079.38
2022-12-13T16:07:38.080Z,100080.72
2022-12-13T16:10:05.320Z,100078.78
2022-12-13T16:12:39.314Z,100079.13
2022-12-13T16:15:20.237Z,100085.94
2022-12-13T16:17:56.748Z,100080.50
2022-12-13T16:20:26.305Z,100068.78
2022-12-13T16:22:53.774Z,100066.00
2022-12-13T16:25:26.542Z,100066.69
2022-12-13T16:27:52.969Z,100067.38
2022-12-13T16:30:24.070Z,100070.56
2022-12-13T16:35:37.096Z,100073.56
2022-12-13T16:38:09.361Z,100061.84
2022-12-13T16:40:36.045Z,100061.53
2022-12-13T16:43:04.139Z,100062.22
2022-12-13T16:45:47.079Z,100058.28
2022-12-13T16:48:13.932Z,100063.25
2022-12-13T16:50:45.266Z,100068.03
2022-12-13T16:53:17.069Z,100068.53
2022-12-13T16:55:44.037Z,100062.94
2022-12-13T16:58:26.017Z,100060.16
2022-12-13T17:00:52.667Z,100060.63
2022-12-13T17:03:26.155Z,100056.00
2022-12-13T17:05:58.894Z,100059.34
2022-12-13T17:08:25.660Z,100053.72
2022-12-13T17:10:57.936Z,100056.03
2022-12-13T17:13:25.108Z,100053.75
2022-12-13T17:15:59.479Z,100054.41
2022-12-13T17:18:26.382Z,100056.06
2022-12-13T17:20:58.261Z,100046.97
2022-12-13T17:23:25.849Z,100046.81
2022-12-13T17:25:58.434Z,100047.47
2022-12-13T17:28:25.349Z,100041.84
2022-12-13T17:30:54.971Z,100038.88
2022-12-13T17:33:22.065Z,100042.16
2022-12-13T17:35:48.772Z,100043.50
2022-12-13T17:38:15.168Z,100046.63
2022-12-13T17:40:41.766Z,100034.06
2022-12-13T17:43:19.529Z,100031.94
2022-12-13T17:46:01.387Z,100029.94
2022-12-13T17:48:31.613Z,100032.25
2022-12-13T17:51:02.083Z,100031.25
2022-12-13T17:53:29.099Z,100039.47
2022-12-13T17:55:59.716Z,100026.25
2022-12-13T17:58:27.220Z,100031.19
2022-12-13T18:00:54.267Z,100033.34
2022-12-13T18:03:20.739Z,100039.94
2022-12-13T23:56:41.332Z,99782.97
2022-12-13T23:59:07.748Z,99785.59
